Time;durP1;ratioP1;P1;durP2;ratioP2;P2;SDS_P1;SDS_P2;PMS_P1;PMS_P2;Temp;Humidity;BMP_temperature;BMP_pressure;BME280_temperature;BME280_humidity;BME280_pressure;Samples;Min_cycle;Max_cycle;Signal;HPM_P1;HPM_P2
2022/06/21 00:00:37;;;;;;;32.63;14.25;;;;;;;29.62;69.13;100586.50;5012724;28;69373;-37
2022/06/21 00:03:12;;;;;;;26.33;12.25;;;;;;;29.34;69.30;100528.28;5012773;28;66101;-38
2022/06/21 00:05:46;;;;;;;17.55;12.32;;;;;;;29.36;71.48;100523.50;5018159;28;69192;-37
2022/06/21 00:08:21;;;;;;;21.25;11.35;;;;;;;29.71;71.47;100577.13;5016355;28;65694;-37
2022/06/21 00:10:53;;;;;;;17.70;12.57;;;;;;;29.74;71.37;100571.25;5018196;28;70508;-36
2022/06/21 00:13:27;;;;;;;16.67;11.07;;;;;;;29.86;71.32;100581.38;5013279;28;65421;-37
2022/06/21 00:16:11;;;;;;;16.40;10.73;;;;;;;29.55;72.54;100518.16;5011396;28;70531;-38
2022/06/21 00:18:44;;;;;;;12.60;10.50;;;;;;;29.95;72.12;100569.22;5006764;28;67082;-38
2022/06/21 00:21:17;;;;;;;16.67;10.55;;;;;;;29.58;70.03;100504.19;5015113;28;70913;-37
2022/06/21 00:23:50;;;;;;;13.20;8.85;;;;;;;29.99;69.59;100573.16;5014177;28;65307;-37
2022/06/21 00:26:24;;;;;;;8.85;8.05;;;;;;;30.04;69.16;100574.13;5016827;28;70118;-37
2022/06/21 00:28:55;;;;;;;10.75;8.93;;;;;;;30.10;69.43;100567.00;5013574;28;64916;-38
2022/06/21 00:31:30;;;;;;;10.63;8.98;;;;;;;30.13;68.98;100569.25;5017727;28;69199;-40
2022/06/21 00:34:27;;;;;;;9.30;8.45;;;;;;;30.07;70.78;100575.56;5011000;28;65225;-39
2022/06/21 00:37:00;;;;;;;9.98;8.60;;;;;;;30.01;68.41;100535.91;5018400;28;69585;-40
2022/06/21 00:39:32;;;;;;;13.60;8.70;;;;;;;30.30;68.50;100582.25;5012426;28;65846;-40
2022/06/21 00:42:18;;;;;;;15.30;11.05;;;;;;;29.97;72.57;100546.31;5009176;28;70360;-40
2022/06/21 00:45:31;;;;;;;14.15;10.52;;;;;;;29.89;72.67;100548.47;5011562;28;66379;-40
2022/06/21 00:48:34;;;;;;;11.07;9.82;;;;;;;30.19;72.47;100595.41;5012657;28;70207;-40
2022/06/21 00:51:19;;;;;;;11.63;9.90;;;;;;;30.25;72.21;100599.97;5018008;28;65700;-40
2022/06/21 00:53:57;;;;;;;12.60;9.35;;;;;;;30.28;72.37;100596.84;5008670;28;69693;-41
2022/06/21 00:56:36;;;;;;;10.25;8.20;;;;;;;30.24;70.06;100557.75;5010152;28;65481;-39
2022/06/21 00:59:18;;;;;;;7.95;7.35;;;;;;;30.48;70.18;100591.22;5012380;28;70615;-39
2022/06/21 01:01:50;;;;;;;8.00;7.30;;;;;;;30.67;68.71;100600.19;5016486;28;66664;-40
2022/06/21 01:04:35;;;;;;;7.78;7.00;;;;;;;30.64;69.31;100614.16;5010804;28;69788;-39
2022/06/21 01:07:11;;;;;;;7.40;6.70;;;;;;;30.70;68.96;100605.16;5015864;28;65706;-39
2022/06/21 01:09:49;;;;;;;8.30;7.57;;;;;;;30.45;68.39;100563.75;5017217;28;70067;-40
2022/06/21 01:12:35;;;;;;;8.07;7.38;;;;;;;30.79;67.67;100618.38;5012836;28;66288;-41
2022/06/21 01:15:19;;;;;;;8.65;6.72;;;;;;;30.71;68.38;100612.19;5014594;28;70545;-39
2022/06/21 01:17:56;;;;;;;7.32;6.70;;;;;;;30.87;67.48;100631.63;5012972;28;66133;-40
2022/06/21 01:20:31;;;;;;;8.82;7.40;;;;;;;30.60;67.36;100576.94;5013991;28;69906;-41
2022/06/21 01:23:23;;;;;;;7.32;6.82;;;;;;;30.85;67.79;100633.75;5007286;28;66112;-41
2022/06/21 01:26:12;;;;;;;7.47;6.72;;;;;;;30.92;67.54;100629.06;5016009;28;69612;-40
2022/06/21 01:28:44;;;;;;;7.18;6.68;;;;;;;31.02;66.50;100625.84;5015875;28;65681;-39
2022/06/21 01:31:15;;;;;;;7.78;7.07;;;;;;;31.03;66.37;100628.31;5016539;28;69306;-39
2022/06/21 01:33:46;;;;;;;8.75;7.00;;;;;;;31.02;66.25;100626.66;5019413;28;65626;-39
2022/06/21 01:36:24;;;;;;;7.07;6.60;;;;;;;30.91;65.97;100611.16;5017790;28;69437;-39
2022/06/21 01:39:03;;;;;;;8.13;7.50;;;;;;;31.08;65.89;100633.88;5018172;28;66314;-39
2022/06/21 01:41:42;;;;;;;8.00;7.30;;;;;;;31.19;65.08;100651.25;5010666;28;69608;-40
2022/06/21 01:44:22;;;;;;;7.13;6.45;;;;;;;31.13;66.64;100642.16;5016602;28;65278;-40
2022/06/21 01:46:55;;;;;;;7.40;6.90;;;;;;;31.24;65.89;100648.69;5010467;28;70317;-39
2022/06/21 01:49:31;;;;;;;7.93;7.32;;;;;;;31.24;66.44;100640.56;5015846;28;65846;-41
2022/06/21 01:52:11;;;;;;;8.52;7.72;;;;;;;30.97;66.45;100583.16;5014191;28;70451;-40
2022/06/21 01:54:46;;;;;;;7.75;7.25;;;;;;;31.35;66.31;100652.50;5010329;28;66075;-40
2022/06/21 01:57:17;;;;;;;7.82;7.28;;;;;;;31.39;65.83;100645.59;5009537;28;70296;-40
2022/06/21 01:59:51;;;;;;;8.07;7.53;;;;;;;30.86;65.77;100551.44;5009855;28;65338;-40
2022/06/21 02:02:34;;;;;;;8.50;7.85;;;;;;;31.35;66.21;100628.94;5015309;28;70891;-39
2022/06/21 02:05:12;;;;;;;10.18;6.95;;;;;;;31.39;65.62;100618.50;5011467;28;65491;-40
2022/06/21 02:07:56;;;;;;;7.43;6.85;;;;;;;31.41;65.82;100624.50;5016038;28;69731;-40
2022/06/21 02:10:34;;;;;;;7.20;6.60;;;;;;;31.46;65.35;100619.22;5014410;28;66278;-39
2022/06/21 02:13:26;;;;;;;7.25;6.70;;;;;;;31.46;65.31;100629.25;5010938;28;70464;-40
2022/06/21 02:16:01;;;;;;;6.60;6.20;;;;;;;31.49;64.98;100626.91;5013226;28;66896;-39
2022/06/21 02:18:38;;;;;;;6.60;6.20;;;;;;;31.53;64.72;100625.38;5016452;28;69788;-40
2022/06/21 02:21:42;;;;;;;6.80;6.30;;;;;;;31.48;64.91;100630.69;5019336;28;66364;-41
2022/06/21 02:24:14;;;;;;;6.10;5.70;;;;;;;31.66;64.33;100629.78;5001717;28;70123;-40
2022/06/21 02:26:45;;;;;;;;;;;;;;;31.08;65.27;100585.09;5018466;28;66515;-39
2022/06/21 02:29:16;;;;;;;6.15;5.60;;;;;;;31.68;64.19;100626.81;5013032;28;68730;-40
2022/06/21 02:31:47;;;;;;;7.00;6.43;;;;;;;31.67;64.23;100623.28;5011858;28;66581;-40
2022/06/21 02:34:23;;;;;;;6.20;5.80;;;;;;;31.67;63.92;100619.75;5015192;28;68936;-40
2022/06/21 02:36:58;;;;;;;6.45;5.95;;;;;;;31.80;63.78;100633.13;5017278;28;66317;-39
2022/06/21 02:39:32;;;;;;;6.18;5.70;;;;;;;31.82;63.48;100628.28;5010370;28;69349;-47
2022/06/21 02:42:14;;;;;;;6.30;5.65;;;;;;;31.83;63.21;100624.50;5014214;28;66402;-39
2022/06/21 02:44:50;;;;;;;5.70;5.30;;;;;;;31.44;63.32;100561.72;5011918;28;70116;-40
2022/06/21 02:47:26;;;;;;;5.97;5.47;;;;;;;31.88;62.90;100634.66;5018744;28;66101;-40
2022/06/21 02:50:29;;;;;;;5.70;5.30;;;;;;;31.78;63.09;100613.53;5013495;28;70097;-40
2022/06/21 02:53:04;;;;;;;6.10;5.63;;;;;;;31.91;63.04;100615.22;5019596;28;65899;-39
2022/06/21 02:55:48;;;;;;;5.78;5.28;;;;;;;31.92;62.54;100601.44;5009207;28;70236;-39
2022/06/21 02:58:30;;;;;;;5.05;4.57;;;;;;;31.95;62.61;100611.00;5014433;28;65770;-40
2022/06/21 03:01:05;;;;;;;5.90;5.20;;;;;;;31.97;62.88;100615.13;5015152;28;69517;-41
2022/06/21 03:03:37;;;;;;;5.65;5.10;;;;;;;31.98;62.69;100616.78;5017808;28;66681;-39
2022/06/21 03:06:11;;;;;;;8.07;5.10;;;;;;;31.99;62.73;100618.44;5014648;28;68912;-39
2022/06/21 03:09:06;;;;;;;5.35;4.85;;;;;;;31.72;62.15;100557.53;5015134;28;66678;-44
2022/06/21 03:11:40;;;;;;;10.25;5.53;;;;;;;32.06;62.30;100615.59;5018068;28;70233;-39
2022/06/21 03:14:19;;;;;;;5.72;5.15;;;;;;;32.08;62.34;100607.25;5012083;28;66213;-39
2022/06/21 03:16:52;;;;;;;7.97;4.60;;;;;;;32.11;62.16;100621.16;5016099;28;70115;-40
2022/06/21 03:19:43;;;;;;;4.78;4.47;;;;;;;32.12;62.06;100616.53;5012912;28;66189;-39
2022/06/21 03:22:29;;;;;;;6.88;4.75;;;;;;;31.91;62.17;100594.38;5016703;28;69499;-39
2022/06/21 03:25:05;;;;;;;4.70;4.40;;;;;;;31.94;62.06;100572.19;5019004;28;66534;-39
2022/06/21 03:27:51;;;;;;;5.07;4.78;;;;;;;32.07;61.83;100608.28;5019245;28;69228;-40
2022/06/21 03:30:28;;;;;;;5.95;5.45;;;;;;;32.16;61.66;100604.19;5019184;28;66478;-38
2022/06/21 03:33:02;;;;;;;6.57;4.40;;;;;;;32.17;62.08;100603.09;5015709;28;71030;-40
2022/06/21 03:35:35;;;;;;;4.68;4.22;;;;;;;32.18;62.07;100599.31;5017577;28;66254;-40
2022/06/21 03:38:06;;;;;;;5.00;4.60;;;;;;;32.19;61.78;100590.13;5018917;28;70391;-38
2022/06/21 03:43:51;;;;;;;5.03;4.50;;;;;;;32.11;61.26;100583.16;5015890;28;68956;-38
2022/06/21 03:46:30;;;;;;;4.65;4.25;;;;;;;32.27;61.59;100592.50;5015509;28;66118;-38
2022/06/21 03:49:22;;;;;;;5.07;4.78;;;;;;;32.25;61.42;100578.31;5021287;28;69500;-39
2022/06/21 03:51:55;;;;;;;4.57;4.27;;;;;;;32.31;61.48;100582.81;5020745;28;65363;-38
2022/06/21 03:54:33;;;;;;;4.68;4.28;;;;;;;32.30;61.11;100569.47;5018817;28;69916;-38
2022/06/21 03:57:15;;;;;;;4.53;4.28;;;;;;;32.08;60.84;100531.28;5016659;28;65306;-39
2022/06/21 04:00:10;;;;;;;4.15;3.75;;;;;;;32.10;60.91;100531.88;5015631;28;70108;-39
2022/06/21 04:02:53;;;;;;;4.35;4.05;;;;;;;32.43;61.11;100572.78;5017662;28;66160;-39
2022/06/21 04:05:31;;;;;;;4.47;4.18;;;;;;;32.35;60.59;100546.00;5019213;28;69289;-39
2022/06/21 04:08:21;;;;;;;4.82;4.53;;;;;;;31.97;60.54;100474.06;5034399;28;65825;-40
2022/06/21 04:11:06;;;;;;;4.97;4.05;;;;;;;32.42;60.40;100545.84;5018868;28;69982;-39
2022/06/21 04:13:45;;;;;;;3.88;3.58;;;;;;;32.55;60.45;100550.25;5010000;28;65882;-40
2022/06/21 04:16:40;;;;;;;4.85;3.85;;;;;;;32.61;60.47;100560.13;5011132;28;70190;-39
2022/06/21 04:19:20;;;;;;;4.05;3.75;;;;;;;32.63;60.19;100552.56;5015698;28;66213;-39
2022/06/21 04:22:09;;;;;;;3.30;3.10;;;;;;;32.60;60.22;100532.16;5016974;28;70661;-39
2022/06/21 04:24:58;;;;;;;3.70;3.40;;;;;;;32.51;59.76;100511.84;5018438;28;66021;-38
2022/06/21 04:27:29;;;;;;;3.97;3.67;;;;;;;32.70;60.09;100515.22;5018750;28;70817;-40
2022/06/21 04:30:08;;;;;;;4.05;3.72;;;;;;;32.73;59.72;100503.88;5020563;28;65809;-39
2022/06/21 04:32:50;;;;;;;3.53;3.28;;;;;;;32.68;59.52;100501.06;5012694;28;69495;-39
2022/06/21 04:35:25;;;;;;;4.07;3.42;;;;;;;32.75;59.79;100504.47;5011396;28;65734;-41
2022/06/21 04:38:02;;;;;;;3.47;3.22;;;;;;;32.39;59.57;100438.56;5014590;28;69264;-38
2022/06/21 04:40:40;;;;;;;3.20;2.95;;;;;;;32.77;59.40;100491.47;5021062;28;65783;-40
2022/06/21 04:43:25;;;;;;;3.60;3.30;;;;;;;32.77;59.50;100494.19;5014694;28;70183;-39
2022/06/21 04:46:15;;;;;;;3.22;2.78;;;;;;;32.64;59.39;100467.31;5010134;28;66050;-40
2022/06/21 04:49:23;;;;;;;3.58;3.25;;;;;;;32.47;59.48;100440.94;5015621;28;69940;-39
2022/06/21 04:51:59;;;;;;;3.45;3.15;;;;;;;32.49;59.30;100430.66;5014112;28;65618;-38
2022/06/21 04:54:34;;;;;;;4.03;3.47;;;;;;;32.61;59.35;100440.66;5014984;28;69954;-39
2022/06/21 04:57:15;;;;;;;4.22;3.38;;;;;;;32.80;59.19;100471.97;5018719;28;66122;-39
2022/06/21 05:00:13;;;;;;;3.25;2.95;;;;;;;32.57;59.18;100450.34;5017554;28;69978;-39
2022/06/21 05:02:52;;;;;;;3.50;3.20;;;;;;;32.70;59.00;100444.63;5011943;28;65625;-39
2022/06/21 05:05:37;;;;;;;2.97;2.78;;;;;;;32.66;58.84;100432.59;5018284;28;70058;-40
2022/06/21 05:08:17;;;;;;;3.53;3.13;;;;;;;33.00;58.88;100468.00;5007598;28;65769;-40
2022/06/21 05:10:52;;;;;;;3.17;2.97;;;;;;;32.87;59.03;100434.59;5009837;28;69453;-40
2022/06/21 05:13:28;;;;;;;3.03;2.83;;;;;;;33.06;59.01;100469.75;5017905;28;65473;-40
2022/06/21 05:16:10;;;;;;;2.92;2.72;;;;;;;33.07;58.70;100463.22;5011875;28;69857;-40
2022/06/21 05:18:45;;;;;;;4.07;2.78;;;;;;;33.09;58.55;100466.53;5015377;28;65701;-39
2022/06/21 05:21:34;;;;;;;3.92;3.00;;;;;;;33.07;58.54;100465.94;5012225;28;70429;-38
2022/06/21 05:24:06;;;;;;;2.80;2.35;;;;;;;33.16;58.78;100469.94;5011794;28;65908;-39
2022/06/21 05:26:46;;;;;;;3.75;2.58;;;;;;;32.85;58.17;100415.03;5013212;28;69985;-39
2022/06/21 05:29:26;;;;;;;2.67;2.55;;;;;;;33.12;58.19;100447.84;5012505;28;65747;-39
2022/06/21 05:32:02;;;;;;;2.38;2.28;;;;;;;32.98;58.03;100402.19;5014994;28;69625;-40
2022/06/21 05:34:42;;;;;;;2.75;2.55;;;;;;;33.26;58.02;100447.53;5011650;28;65582;-39
2022/06/21 05:37:32;;;;;;;3.08;2.30;;;;;;;33.07;57.95;100426.03;5020512;28;69161;-39
2022/06/21 05:40:19;;;;;;;2.90;2.70;;;;;;;33.28;57.90;100427.19;5012191;28;66622;-38
2022/06/21 05:42:51;;;;;;;4.43;2.88;;;;;;;33.36;58.28;100431.38;5019778;28;70552;-39
2022/06/21 05:45:30;;;;;;;2.83;2.63;;;;;;;33.41;57.87;100436.09;5016450;28;65643;-38
2022/06/21 05:48:12;;;;;;;2.20;2.00;;;;;;;33.17;57.95;100387.31;5017435;28;70482;-39
2022/06/21 05:50:43;;;;;;;4.40;2.30;;;;;;;33.45;57.96;100418.19;5011864;28;65623;-39
2022/06/21 05:53:31;;;;;;;2.30;2.10;;;;;;;33.35;57.64;100394.41;5018998;28;69939;-39
2022/06/21 05:56:07;;;;;;;2.58;2.38;;;;;;;33.23;57.32;100350.97;5013582;28;65078;-40
2022/06/21 05:59:03;;;;;;;2.10;1.90;;;;;;;33.05;57.20;100321.38;5012366;28;69191;-39
2022/06/21 06:01:39;;;;;;;2.45;2.25;;;;;;;33.61;57.34;100395.63;5010551;28;66303;-40
2022/06/21 06:04:32;;;;;;;2.33;2.13;;;;;;;33.58;56.96;100385.25;5015657;28;70288;-39
2022/06/21 06:07:05;;;;;;;2.42;1.98;;;;;;;33.41;57.19;100335.50;5010097;28;66517;-39
2022/06/21 06:09:47;;;;;;;2.30;2.10;;;;;;;33.49;56.82;100343.19;5017954;28;71634;-39
2022/06/21 06:12:25;;;;;;;1.63;1.55;;;;;;;33.54;56.62;100346.88;5007203;28;66481;-39
2022/06/21 06:15:07;;;;;;;1.85;1.70;;;;;;;33.26;56.61;100296.13;5019020;28;70243;-40
2022/06/21 06:17:52;;;;;;;1.90;1.80;;;;;;;33.86;56.84;100391.59;5013753;28;66700;-39
2022/06/21 06:20:45;;;;;;;1.75;1.65;;;;;;;33.80;56.73;100399.69;5013733;28;70156;-40
2022/06/21 06:23:32;;;;;;;5.07;1.73;;;;;;;33.86;56.36;100386.16;5016531;28;66199;-39
2022/06/21 06:26:18;;;;;;;1.75;1.65;;;;;;;33.89;56.51;100380.22;5016455;28;69972;-38
2022/06/21 06:28:58;;;;;;;1.60;1.50;;;;;;;33.96;55.97;100375.38;5031721;28;65347;-39
2022/06/21 06:31:39;;;;;;;3.97;2.03;;;;;;;33.72;56.05;100313.09;5008546;28;69017;-38
2022/06/21 06:34:14;;;;;;;1.40;1.30;;;;;;;33.72;56.62;100306.81;5010020;28;66403;-39
2022/06/21 06:36:51;;;;;;;3.00;1.95;;;;;;;34.07;55.88;100355.41;5011537;28;70546;-38
2022/06/21 06:39:31;;;;;;;1.77;1.67;;;;;;;33.71;56.34;100286.13;5014113;28;66583;-39
2022/06/21 06:42:16;;;;;;;1.95;1.42;;;;;;;33.98;56.35;100329.69;5007707;28;70064;-39
2022/06/21 06:45:01;;;;;;;2.13;1.90;;;;;;;34.08;56.22;100327.13;5017213;28;66605;-39
2022/06/21 06:47:48;;;;;;;2.00;1.90;;;;;;;34.03;56.13;100327.84;5013474;28;70139;-39
2022/06/21 06:50:27;;;;;;;1.65;1.52;;;;;;;34.06;56.32;100315.66;5005030;28;65539;-40
2022/06/21 06:53:22;;;;;;;1.60;1.50;;;;;;;34.02;56.05;100311.81;5011602;28;69646;-39
2022/06/21 06:56:03;;;;;;;2.20;1.90;;;;;;;34.12;55.98;100308.38;5014824;28;66359;-39
2022/06/21 06:58:37;;;;;;;1.70;1.60;;;;;;;34.13;56.20;100294.53;5015382;28;69826;-39
2022/06/21 07:01:15;;;;;;;4.55;1.88;;;;;;;34.15;55.95;100300.53;5014435;28;65813;-40
2022/06/21 07:04:03;;;;;;;1.73;1.25;;;;;;;34.08;55.96;100285.50;5014754;28;70149;-40
2022/06/21 07:06:43;;;;;;;2.15;1.52;;;;;;;34.14;56.12;100279.84;5020798;28;66389;-40
2022/06/21 07:09:19;;;;;;;1.60;1.50;;;;;;;34.17;56.16;100290.22;5018954;28;70195;-42
2022/06/21 07:12:17;;;;;;;1.77;1.67;;;;;;;34.07;56.28;100284.66;5023408;28;66508;-39
2022/06/21 07:14:49;;;;;;;4.13;1.85;;;;;;;34.16;56.31;100274.97;5016940;28;70245;-39
2022/06/21 07:17:52;;;;;;;1.48;1.38;;;;;;;34.07;55.92;100267.50;5020685;28;66355;-40
2022/06/21 07:20:25;;;;;;;2.03;1.83;;;;;;;34.18;56.11;100264.63;5015539;28;69518;-39
2022/06/21 07:22:56;;;;;;;3.58;1.77;;;;;;;34.19;56.18;100271.72;5019512;28;67358;-38
2022/06/21 07:25:38;;;;;;;2.70;1.65;;;;;;;33.88;55.87;100229.75;5018283;28;69893;-39
2022/06/21 07:28:26;;;;;;;1.75;1.65;;;;;;;34.20;55.76;100267.09;5011154;28;66213;-39
2022/06/21 07:31:01;;;;;;;2.85;1.67;;;;;;;34.19;56.04;100266.28;5016330;28;70068;-39
2022/06/21 07:33:41;;;;;;;5.00;1.77;;;;;;;34.12;55.84;100254.75;5014970;28;66177;-39
2022/06/21 07:36:31;;;;;;;6.07;1.70;;;;;;;34.16;55.99;100272.25;5012090;28;69932;-40
2022/06/21 07:39:17;;;;;;;2.15;1.35;;;;;;;33.89;56.29;100228.66;5015526;28;65491;-39
2022/06/21 07:42:19;;;;;;;5.00;1.58;;;;;;;34.16;55.92;100272.25;5017276;28;69504;-39
2022/06/21 07:45:06;;;;;;;1.60;1.50;;;;;;;34.15;56.09;100270.59;5016606;28;66008;-40
2022/06/21 07:47:45;;;;;;;1.70;1.60;;;;;;;34.20;56.30;100262.47;5023030;28;69974;-39
2022/06/21 07:50:28;;;;;;;3.88;1.55;;;;;;;34.17;55.64;100257.53;5014998;28;66738;-39
2022/06/21 07:53:31;;;;;;;2.45;1.48;;;;;;;34.09;56.14;100243.59;5015917;28;69553;-39
2022/06/21 07:56:15;;;;;;;1.60;1.40;;;;;;;34.19;56.16;100236.34;5019475;28;66217;-39
2022/06/21 07:59:08;;;;;;;2.28;1.80;;;;;;;34.11;55.86;100222.38;5018801;28;70330;-38
2022/06/21 08:07:50;;;;;;;1.80;1.63;;;;;;;34.15;56.35;100276.03;5014847;28;66859;-39
2022/06/21 08:10:42;;;;;;;1.50;1.40;;;;;;;33.87;55.97;100228.09;5014196;28;69801;-39
2022/06/21 08:13:13;;;;;;;;;;;;;;;33.90;56.94;100257.50;5012913;28;66209;-39
2022/06/21 08:15:54;;;;;;;2.80;1.50;;;;;;;33.88;56.04;100198.97;5020164;28;69802;-39
2022/06/21 08:18:45;;;;;;;5.00;1.55;;;;;;;33.95;56.62;100210.50;5007480;28;65877;-39
2022/06/21 08:21:20;;;;;;;1.58;1.48;;;;;;;34.18;56.40;100250.19;5014431;28;69515;-39
2022/06/21 08:24:03;;;;;;;1.50;1.40;;;;;;;34.15;56.00;100248.81;5020090;28;66498;-39
2022/06/21 08:27:06;;;;;;;1.70;1.60;;;;;;;34.03;56.72;100256.28;5014955;28;69353;-39
2022/06/21 08:29:49;;;;;;;2.22;1.58;;;;;;;33.94;56.54;100217.84;5015594;28;66356;-38
2022/06/21 08:32:32;;;;;;;1.45;1.35;;;;;;;34.19;56.33;100265.47;5017358;28;70405;-39
2022/06/21 08:35:27;;;;;;;2.22;1.85;;;;;;;34.05;56.51;100267.78;5013585;28;65845;-39
2022/06/21 08:38:08;;;;;;;3.35;1.65;;;;;;;34.01;56.47;100253.00;5002753;28;69196;-38
2022/06/21 08:44:25;;;;;;;1.58;1.38;;;;;;;33.72;56.63;100215.16;5012117;28;69871;-39
2022/06/21 08:47:05;;;;;;;1.90;1.38;;;;;;;34.09;56.47;100259.91;5015087;28;66568;-39
2022/06/21 08:50:01;;;;;;;2.90;1.60;;;;;;;34.02;56.88;100249.22;5016367;28;70147;-39
2022/06/21 08:52:37;;;;;;;1.95;1.58;;;;;;;34.10;56.32;100240.63;5009758;28;65825;-39
2022/06/21 08:55:44;;;;;;;2.60;1.80;;;;;;;33.98;56.85;100248.06;5017984;28;69975;-39
2022/06/21 08:58:20;;;;;;;1.60;1.50;;;;;;;34.09;56.98;100249.84;5017827;28;66250;-39
2022/06/21 09:01:08;;;;;;;1.58;1.38;;;;;;;34.08;56.78;100248.22;5014086;28;70177;-39
2022/06/21 09:04:05;;;;;;;1.70;1.60;;;;;;;34.03;56.72;100250.84;5018976;28;65293;-39
2022/06/21 09:07:09;;;;;;;2.00;1.60;;;;;;;33.48;56.91;100175.69;5013358;28;69252;-40
2022/06/21 09:09:49;;;;;;;1.60;1.40;;;;;;;34.06;56.77;100271.31;5017118;28;65362;-38
2022/06/21 09:12:48;;;;;;;1.73;1.35;;;;;;;33.97;56.95;100287.25;5005029;28;69992;-39
2022/06/21 09:15:24;;;;;;;1.65;1.55;;;;;;;33.98;56.96;100289.69;5019386;28;66816;-38
2022/06/21 09:17:55;;;;;;;1.90;1.73;;;;;;;34.04;57.15;100290.56;5018516;28;70176;-40
2022/06/21 09:21:05;;;;;;;4.25;1.95;;;;;;;33.65;56.69;100240.91;5017699;28;65385;-39
2022/06/21 09:23:38;;;;;;;2.40;2.17;;;;;;;34.02;57.13;100300.91;5013394;28;70864;-38
2022/06/21 09:26:19;;;;;;;2.30;2.10;;;;;;;33.96;56.77;100299.19;5025153;28;65380;-39
2022/06/21 09:29:25;;;;;;;2.88;2.15;;;;;;;33.91;57.03;100307.31;5013178;28;69244;-38
2022/06/21 09:32:21;;;;;;;1.77;1.50;;;;;;;33.52;57.16;100252.97;5014698;28;65860;-41
2022/06/21 09:34:58;;;;;;;2.60;2.25;;;;;;;33.99;56.83;100304.97;5014289;28;69591;-39
2022/06/21 09:38:02;;;;;;;2.65;2.33;;;;;;;33.94;57.01;100312.25;5016699;28;66412;-39
2022/06/21 09:41:13;;;;;;;3.22;2.83;;;;;;;33.86;57.49;100315.41;5020392;28;70180;-39
2022/06/21 09:44:27;;;;;;;2.97;2.78;;;;;;;33.86;57.49;100331.75;5017164;28;66359;-41
2022/06/21 09:47:12;;;;;;;3.05;2.67;;;;;;;33.95;57.44;100341.09;5016954;28;69557;-40
2022/06/21 09:50:01;;;;;;;3.17;2.88;;;;;;;33.94;57.46;100337.56;5017790;28;66577;-39
2022/06/21 09:52:56;;;;;;;5.35;3.35;;;;;;;33.84;57.80;100350.22;5016963;28;70706;-40
2022/06/21 09:55:40;;;;;;;7.25;2.42;;;;;;;33.59;57.78;100313.44;5013474;28;66559;-39
2022/06/21 09:58:23;;;;;;;5.43;3.10;;;;;;;33.89;57.77;100358.44;5016125;28;69705;-39
2022/06/21 10:01:09;;;;;;;4.50;3.22;;;;;;;33.87;57.43;100355.97;5015407;28;66246;-40
2022/06/21 10:03:47;;;;;;;4.45;3.10;;;;;;;33.87;57.78;100355.16;5016512;28;70142;-38
2022/06/21 10:06:30;;;;;;;4.25;3.15;;;;;;;33.52;58.06;100326.41;5014380;28;66183;-38
2022/06/21 10:09:19;;;;;;;4.03;2.78;;;;;;;33.85;57.90;100370.91;5018409;28;69965;-39
2022/06/21 10:12:07;;;;;;;3.17;2.90;;;;;;;33.85;57.96;100368.16;5013097;28;66355;-40
2022/06/21 10:14:53;;;;;;;3.33;3.13;;;;;;;33.73;58.13;100369.13;5015839;28;70487;-40
2022/06/21 10:17:58;;;;;;;5.55;3.03;;;;;;;33.64;58.28;100357.03;5018736;28;65226;-39
2022/06/21 10:20:48;;;;;;;2.92;2.72;;;;;;;33.51;57.94;100317.38;5011863;28;70190;-39
2022/06/21 10:23:30;;;;;;;3.10;2.80;;;;;;;33.71;57.79;100365.84;5014076;28;64824;-41
2022/06/21 10:26:37;;;;;;;5.70;3.35;;;;;;;33.64;58.20;100386.97;5009263;28;70262;-40
2022/06/21 10:29:14;;;;;;;7.72;3.17;;;;;;;33.70;58.04;100396.81;5012019;28;65549;-40
2022/06/21 10:32:26;;;;;;;3.60;3.30;;;;;;;33.61;58.36;100411.13;5014552;28;69609;-40
2022/06/21 10:35:20;;;;;;;4.45;2.75;;;;;;;33.67;58.32;100419.09;5008646;28;66075;-40
2022/06/21 10:38:13;;;;;;;3.22;3.00;;;;;;;33.50;58.16;100427.25;5015738;28;69999;-40
2022/06/21 10:41:01;;;;;;;5.28;2.90;;;;;;;33.63;58.06;100431.56;5011533;28;64871;-38
2022/06/21 10:43:46;;;;;;;3.30;3.00;;;;;;;33.65;58.03;100428.56;5014916;28;70289;-39
2022/06/21 10:46:25;;;;;;;5.40;3.22;;;;;;;33.63;58.08;100434.28;5013398;28;65747;-39
2022/06/21 10:49:35;;;;;;;2.90;2.70;;;;;;;33.53;58.16;100442.28;5016997;28;70109;-40
2022/06/21 10:52:40;;;;;;;3.08;2.78;;;;;;;33.38;58.31;100430.06;5019567;28;67052;-39
2022/06/21 10:59:08;;;;;;;3.22;2.92;;;;;;;33.54;58.38;100443.91;5034318;28;65601;-39
2022/06/21 11:02:05;;;;;;;3.00;2.63;;;;;;;33.52;58.48;100456.91;5015823;28;70303;-39
2022/06/21 11:04:54;;;;;;;6.80;2.90;;;;;;;33.46;58.48;100474.22;5014989;28;65809;-39
2022/06/21 11:08:29;;;;;;;3.28;3.08;;;;;;;33.35;58.91;100495.81;5010299;28;69343;-40
2022/06/21 11:11:09;;;;;;;3.15;2.90;;;;;;;33.48;58.42;100504.69;4980232;28;66313;-40
2022/06/21 11:14:04;;;;;;;3.20;2.90;;;;;;;33.18;58.30;100465.06;5011199;28;68890;-40
2022/06/21 11:16:39;;;;;;;4.68;3.50;;;;;;;33.46;58.50;100531.31;5016429;28;66257;-40
2022/06/21 11:19:31;;;;;;;3.22;3.03;;;;;;;33.38;58.83;100538.00;5014922;28;70121;-38
2022/06/21 11:22:18;;;;;;;12.15;3.50;;;;;;;33.35;59.47;100547.47;5024372;28;65876;-41
2022/06/21 11:25:16;;;;;;;5.40;3.60;;;;;;;33.39;59.12;100545.06;5011696;28;69587;-40
2022/06/21 11:28:37;;;;;;;4.32;3.88;;;;;;;33.32;59.40;100550.69;5007598;28;65385;-38
2022/06/21 11:31:23;;;;;;;4.03;3.63;;;;;;;33.07;59.52;100509.44;5011164;28;70314;-38
2022/06/21 11:34:36;;;;;;;4.80;4.22;;;;;;;33.25;60.48;100560.03;5013449;28;66495;-42
2022/06/21 11:37:31;;;;;;;10.32;4.57;;;;;;;33.28;60.40;100571.25;5007270;28;70044;-38
2022/06/21 11:40:26;;;;;;;6.35;5.10;;;;;;;33.32;60.53;100579.72;5011514;28;66194;-41
2022/06/21 11:42:58;;;;;;;7.05;4.45;;;;;;;33.36;60.29;100583.63;5015122;28;70061;-41
2022/06/21 11:45:53;;;;;;;7.45;5.10;;;;;;;33.23;61.20;100571.16;5017627;28;65715;-39
2022/06/21 11:48:45;;;;;;;6.47;4.93;;;;;;;33.20;61.08;100568.91;5000239;28;69893;-40
2022/06/21 11:51:36;;;;;;;5.63;4.45;;;;;;;33.25;61.10;100581.78;5014201;28;66984;-39
2022/06/21 11:54:29;;;;;;;6.10;4.27;;;;;;;33.02;60.83;100539.25;5019444;28;70521;-39
2022/06/21 11:57:34;;;;;;;4.22;3.92;;;;;;;33.15;61.12;100566.09;5037276;28;65653;-39
2022/06/21 12:00:16;;;;;;;5.82;4.53;;;;;;;33.23;60.71;100564.91;5016787;28;69787;-39
2022/06/21 12:02:56;;;;;;;5.35;4.07;;;;;;;33.10;61.16;100568.75;5015429;28;66081;-40
2022/06/21 12:05:41;;;;;;;4.55;3.92;;;;;;;33.15;61.20;100593.28;5014594;28;68826;-39
2022/06/21 12:08:33;;;;;;;4.18;3.78;;;;;;;33.03;61.52;100617.78;5019561;28;66035;-41
2022/06/21 12:11:14;;;;;;;4.32;3.92;;;;;;;32.89;61.47;100600.91;5018538;28;70252;-39
2022/06/21 12:14:04;;;;;;;4.72;4.20;;;;;;;32.93;61.88;100629.25;5018755;28;65105;-39
2022/06/21 12:17:10;;;;;;;5.70;4.15;;;;;;;32.86;61.71;100635.88;5012489;28;68928;-38
2022/06/21 12:19:45;;;;;;;6.00;4.68;;;;;;;32.78;60.69;100590.09;5036774;28;66563;-39
2022/06/21 12:22:22;;;;;;;4.90;4.38;;;;;;;32.99;61.46;100635.63;5019418;28;69371;-40
2022/06/21 12:24:55;;;;;;;4.97;4.50;;;;;;;32.98;61.26;100624.97;5023510;28;65464;-40
2022/06/21 12:27:26;;;;;;;9.45;4.88;;;;;;;32.98;61.20;100635.84;5025076;28;69651;-39
2022/06/21 12:30:01;;;;;;;5.88;5.38;;;;;;;32.81;62.89;100636.59;5017059;28;66665;-39
2022/06/21 12:32:33;;;;;;;5.88;5.38;;;;;;;32.54;63.86;100625.44;5011580;28;69301;-40
2022/06/21 12:35:11;;;;;;;;;;;;;;;32.13;65.74;100650.78;5017913;28;65704;-40
2022/06/21 12:37:55;;;;;;;199.65;111.82;;;;;;;32.18;65.26;100667.16;5014034;28;70428;-39
2022/06/21 12:40:36;;;;;;;304.70;186.20;;;;;;;31.78;65.44;100627.09;5016871;28;65116;-41
2022/06/21 12:43:09;;;;;;;349.13;216.73;;;;;;;32.03;65.93;100678.47;5013439;28;70110;-38
2022/06/21 12:45:58;;;;;;;332.52;210.27;;;;;;;31.94;66.95;100675.28;5015266;28;66509;-38
2022/06/21 12:48:36;;;;;;;328.85;200.63;;;;;;;31.87;67.63;100679.94;5010425;28;70323;-39
2022/06/21 12:51:28;;;;;;;299.50;186.93;;;;;;;31.76;67.95;100650.91;5011660;28;66274;-38
2022/06/21 12:54:24;;;;;;;284.08;180.18;;;;;;;31.78;68.22;100652.31;5016957;28;70759;-38
2022/06/21 12:57:35;;;;;;;262.00;166.32;;;;;;;31.29;69.12;100597.34;5014769;28;66713;-38